sensor_id;sensor_type;location;lat;lon;timestamp;pressure;altitude;pressure_sealevel;temperature;humidity
74631;BME280;63138;55.082;38.804;2023-04-03T00:01:20;99713.84;;;5.29;82.38
74631;BME280;63138;55.082;38.804;2023-04-03T00:03:47;99717.53;;;5.28;82.77
74631;BME280;63138;55.082;38.804;2023-04-03T00:06:19;99722.78;;;5.30;82.42
74631;BME280;63138;55.082;38.804;2023-04-03T00:09:10;99724.78;;;5.28;82.87
74631;BME280;63138;55.082;38.804;2023-04-03T00:11:37;99723.63;;;5.30;82.84
74631;BME280;63138;55.082;38.804;2023-04-03T00:14:05;99728.59;;;5.25;82.99
74631;BME280;63138;55.082;38.804;2023-04-03T00:16:56;99721.69;;;5.23;83.16
74631;BME280;63138;55.082;38.804;2023-04-03T00:19:22;99725.91;;;5.25;82.95
74631;BME280;63138;55.082;38.804;2023-04-03T00:21:48;99714.03;;;5.18;83.38
74631;BME280;63138;55.082;38.804;2023-04-03T00:24:14;99726.50;;;5.19;83.00
74631;BME280;63138;55.082;38.804;2023-04-03T00:26:41;99721.69;;;5.23;82.95
74631;BME280;63138;55.082;38.804;2023-04-03T00:29:07;99727.16;;;5.31;82.32
74631;BME280;63138;55.082;38.804;2023-04-03T00:31:33;99721.88;;;5.39;81.91
74631;BME280;63138;55.082;38.804;2023-04-03T00:33:59;99716.34;;;5.41;81.63
74631;BME280;63138;55.082;38.804;2023-04-03T00:36:26;99709.56;;;5.36;81.61
74631;BME280;63138;55.082;38.804;2023-04-03T00:38:52;99720.59;;;5.43;81.78
74631;BME280;63138;55.082;38.804;2023-04-03T00:41:19;99718.19;;;5.40;82.22
74631;BME280;63138;55.082;38.804;2023-04-03T00:43:45;99728.41;;;5.36;82.33
74631;BME280;63138;55.082;38.804;2023-04-03T00:46:11;99707.47;;;5.30;82.26
74631;BME280;63138;55.082;38.804;2023-04-03T00:48:47;99709.47;;;5.28;82.00
74631;BME280;63138;55.082;38.804;2023-04-03T00:51:17;99708.56;;;5.38;81.77
74631;BME280;63138;55.082;38.804;2023-04-03T00:54:02;99708.84;;;5.34;81.52
74631;BME280;63138;55.082;38.804;2023-04-03T00:56:56;99714.78;;;5.38;81.74
74631;BME280;63138;55.082;38.804;2023-04-03T00:59:28;99708.34;;;5.49;80.93
74631;BME280;63138;55.082;38.804;2023-04-03T01:01:56;99709.16;;;5.59;80.69
74631;BME280;63138;55.082;38.804;2023-04-03T01:04:38;99706.47;;;5.59;79.91
74631;BME280;63138;55.082;38.804;2023-04-03T01:07:18;99703.91;;;5.58;80.40
74631;BME280;63138;55.082;38.804;2023-04-03T01:09:50;99707.78;;;5.55;80.60
74631;BME280;63138;55.082;38.804;2023-04-03T01:14:55;99701.78;;;5.33;81.75
74631;BME280;63138;55.082;38.804;2023-04-03T01:17:31;99712.28;;;5.27;82.21
74631;BME280;63138;55.082;38.804;2023-04-03T01:25:12;99700.84;;;5.25;82.54
74631;BME280;63138;55.082;38.804;2023-04-03T01:27:39;99704.47;;;5.33;81.76
74631;BME280;63138;55.082;38.804;2023-04-03T01:30:34;99689.31;;;5.32;81.70
74631;BME280;63138;55.082;38.804;2023-04-03T01:33:02;99708.16;;;5.32;82.04
74631;BME280;63138;55.082;38.804;2023-04-03T01:35:30;99712.44;;;5.25;82.19
74631;BME280;63138;55.082;38.804;2023-04-03T01:37:56;99707.94;;;5.16;82.88
74631;BME280;63138;55.082;38.804;2023-04-03T01:40:48;99710.22;;;5.11;83.05
74631;BME280;63138;55.082;38.804;2023-04-03T01:43:14;99703.88;;;5.12;82.70
74631;BME280;63138;55.082;38.804;2023-04-03T01:45:40;99693.94;;;5.12;82.40
74631;BME280;63138;55.082;38.804;2023-04-03T01:48:07;99706.34;;;5.23;81.95
74631;BME280;63138;55.082;38.804;2023-04-03T01:50:33;99707.94;;;5.16;82.93
74631;BME280;63138;55.082;38.804;2023-04-03T01:53:00;99705.16;;;5.08;82.92
74631;BME280;63138;55.082;38.804;2023-04-03T01:55:30;99697.38;;;4.95;83.33
74631;BME280;63138;55.082;38.804;2023-04-03T01:57:56;99705.63;;;4.93;83.52
74631;BME280;63138;55.082;38.804;2023-04-03T02:00:23;99702.94;;;4.93;83.35
74631;BME280;63138;55.082;38.804;2023-04-03T02:02:49;99699.09;;;4.96;83.10
74631;BME280;63138;55.082;38.804;2023-04-03T02:05:21;99693.28;;;5.01;82.99
74631;BME280;63138;55.082;38.804;2023-04-03T02:07:50;99705.00;;;5.09;82.69
74631;BME280;63138;55.082;38.804;2023-04-03T02:10:17;99702.75;;;5.05;82.62
74631;BME280;63138;55.082;38.804;2023-04-03T02:12:42;99704.34;;;4.97;83.12
74631;BME280;63138;55.082;38.804;2023-04-03T02:15:13;99703.94;;;4.92;83.35
74631;BME280;63138;55.082;38.804;2023-04-03T02:17:39;99707.59;;;4.91;83.52
74631;BME280;63138;55.082;38.804;2023-04-03T02:20:05;99704.91;;;4.91;83.64
74631;BME280;63138;55.082;38.804;2023-04-03T02:22:33;99702.06;;;4.93;83.32
74631;BME280;63138;55.082;38.804;2023-04-03T02:25:00;99708.16;;;4.95;83.68
74631;BME280;63138;55.082;38.804;2023-04-03T02:27:26;99705.06;;;4.90;83.86
74631;BME280;63138;55.082;38.804;2023-04-03T02:29:54;99703.78;;;4.84;83.67
74631;BME280;63138;55.082;38.804;2023-04-03T02:32:20;99703.09;;;4.82;83.88
74631;BME280;63138;55.082;38.804;2023-04-03T02:34:47;99712.97;;;4.91;83.69
74631;BME280;63138;55.082;38.804;2023-04-03T02:37:14;99701.94;;;4.94;83.27
74631;BME280;63138;55.082;38.804;2023-04-03T02:39:42;99691.31;;;4.93;83.04
74631;BME280;63138;55.082;38.804;2023-04-03T02:42:07;99710.00;;;5.04;82.99
74631;BME280;63138;55.082;38.804;2023-04-03T02:44:34;99705.31;;;4.96;82.95
74631;BME280;63138;55.082;38.804;2023-04-03T02:47:01;99700.25;;;4.93;83.21
74631;BME280;63138;55.082;38.804;2023-04-03T02:49:27;99701.94;;;4.94;83.25
74631;BME280;63138;55.082;38.804;2023-04-03T02:51:53;99704.06;;;5.01;83.00
74631;BME280;63138;55.082;38.804;2023-04-03T02:54:20;99707.16;;;4.96;82.71
74631;BME280;63138;55.082;38.804;2023-04-03T02:56:50;99705.31;;;4.96;82.85
74631;BME280;63138;55.082;38.804;2023-04-03T02:59:16;99709.72;;;4.97;83.31
74631;BME280;63138;55.082;38.804;2023-04-03T03:01:42;99699.69;;;4.90;82.82
74631;BME280;63138;55.082;38.804;2023-04-03T03:04:08;99706.34;;;4.95;83.10
74631;BME280;63138;55.082;38.804;2023-04-03T03:06:35;99707.44;;;4.93;83.10
74631;BME280;63138;55.082;38.804;2023-04-03T03:09:02;99701.94;;;4.94;82.91
74631;BME280;63138;55.082;38.804;2023-04-03T03:11:30;99716.50;;;5.02;82.57
74631;BME280;63138;55.082;38.804;2023-04-03T03:13:57;99717.34;;;5.02;82.82
74631;BME280;63138;55.082;38.804;2023-04-03T03:16:25;99722.72;;;5.02;82.85
74631;BME280;63138;55.082;38.804;2023-04-03T03:18:51;99719.19;;;5.02;82.65
74631;BME280;63138;55.082;38.804;2023-04-03T03:21:18;99714.81;;;5.01;83.15
74631;BME280;63138;55.082;38.804;2023-04-03T03:23:44;99723.44;;;5.04;82.92
74631;BME280;63138;55.082;38.804;2023-04-03T03:26:13;99731.22;;;5.07;82.67
74631;BME280;63138;55.082;38.804;2023-04-03T03:28:40;99725.97;;;5.06;83.00
74631;BME280;63138;55.082;38.804;2023-04-03T03:31:07;99720.91;;;5.03;82.84
74631;BME280;63138;55.082;38.804;2023-04-03T03:33:35;99733.34;;;5.04;82.93
74631;BME280;63138;55.082;38.804;2023-04-03T03:36:01;99727.25;;;5.02;83.12
74631;BME280;63138;55.082;38.804;2023-04-03T03:38:27;99722.56;;;5.04;83.13
74631;BME280;63138;55.082;38.804;2023-04-03T03:40:59;99714.66;;;5.02;83.03
74631;BME280;63138;55.082;38.804;2023-04-03T03:43:29;99720.59;;;5.06;82.66
74631;BME280;63138;55.082;38.804;2023-04-03T03:45:56;99729.38;;;5.08;83.10
74631;BME280;63138;55.082;38.804;2023-04-03T03:48:23;99720.91;;;5.03;82.86
74631;BME280;63138;55.082;38.804;2023-04-03T03:50:50;99721.88;;;5.02;83.24
74631;BME280;63138;55.082;38.804;2023-04-03T03:53:17;99732.22;;;5.06;83.04
74631;BME280;63138;55.082;38.804;2023-04-03T03:55:49;99733.34;;;5.04;83.19
74631;BME280;63138;55.082;38.804;2023-04-03T03:58:19;99733.91;;;5.07;83.13
74631;BME280;63138;55.082;38.804;2023-04-03T04:00:49;99726.69;;;5.08;83.15
74631;BME280;63138;55.082;38.804;2023-04-03T04:03:16;99734.44;;;5.11;83.00
74631;BME280;63138;55.082;38.804;2023-04-03T04:05:44;99736.16;;;5.12;83.37
74631;BME280;63138;55.082;38.804;2023-04-03T04:08:10;99724.84;;;5.08;83.50
74631;BME280;63138;55.082;38.804;2023-04-03T04:11:28;99725.94;;;5.15;83.29
74631;BME280;63138;55.082;38.804;2023-04-03T04:13:55;99726.38;;;5.21;83.31
74631;BME280;63138;55.082;38.804;2023-04-03T04:16:24;99726.44;;;5.29;82.99
74631;BME280;63138;55.082;38.804;2023-04-03T04:18:51;99725.63;;;5.28;82.71
74631;BME280;63138;55.082;38.804;2023-04-03T04:21:19;99720.22;;;5.28;82.91
74631;BME280;63138;55.082;38.804;2023-04-03T04:24:06;99731.09;;;5.36;82.80
74631;BME280;63138;55.082;38.804;2023-04-03T04:26:32;99730.50;;;5.43;82.14
74631;BME280;63138;55.082;38.804;2023-04-03T04:29:00;99732.44;;;5.50;82.59
74631;BME280;63138;55.082;38.804;2023-04-03T04:31:27;99729.47;;;5.53;82.10
74631;BME280;63138;55.082;38.804;2023-04-03T04:33:54;99730.03;;;5.57;82.14
74631;BME280;63138;55.082;38.804;2023-04-03T04:36:20;99732.97;;;5.64;82.06
74631;BME280;63138;55.082;38.804;2023-04-03T04:38:47;99729.13;;;5.66;82.00
74631;BME280;63138;55.082;38.804;2023-04-03T04:41:14;99726.13;;;5.69;81.55
74631;BME280;63138;55.082;38.804;2023-04-03T04:43:40;99730.59;;;5.79;81.43
74631;BME280;63138;55.082;38.804;2023-04-03T04:46:08;99733.44;;;5.77;81.56
74631;BME280;63138;55.082;38.804;2023-04-03T04:48:40;99725.63;;;5.84;81.78
74631;BME280;63138;55.082;38.804;2023-04-03T04:51:08;99733.78;;;5.92;81.46
74631;BME280;63138;55.082;38.804;2023-04-03T04:53:36;99736.19;;;5.95;81.48
74631;BME280;63138;55.082;38.804;2023-04-03T04:56:08;99734.59;;;6.02;81.34
74631;BME280;63138;55.082;38.804;2023-04-03T04:58:36;99737.75;;;5.98;81.50
74631;BME280;63138;55.082;38.804;2023-04-03T05:01:08;99733.75;;;6.02;81.02
74631;BME280;63138;55.082;38.804;2023-04-03T05:04:10;99739.38;;;6.08;80.96
74631;BME280;63138;55.082;38.804;2023-04-03T05:06:39;99740.94;;;6.11;80.79
74631;BME280;63138;55.082;38.804;2023-04-03T05:09:33;99738.16;;;6.21;80.53
74631;BME280;63138;55.082;38.804;2023-04-03T05:11:59;99739.31;;;6.18;80.73
74631;BME280;63138;55.082;38.804;2023-04-03T05:14:29;99725.69;;;6.20;80.45
74631;BME280;63138;55.082;38.804;2023-04-03T05:17:00;99738.31;;;6.37;80.02
74631;BME280;63138;55.082;38.804;2023-04-03T05:19:31;99736.00;;;6.42;80.15
74631;BME280;63138;55.082;38.804;2023-04-03T05:22:00;99742.16;;;6.53;79.91
74631;BME280;63138;55.082;38.804;2023-04-03T05:24:29;99731.25;;;6.62;79.40
74631;BME280;63138;55.082;38.804;2023-04-03T05:26:55;99742.72;;;6.82;78.94
74631;BME280;63138;55.082;38.804;2023-04-03T05:35:09;99735.28;;;7.71;75.55
74631;BME280;63138;55.082;38.804;2023-04-03T05:37:55;99736.22;;;8.04;74.44
74631;BME280;63138;55.082;38.804;2023-04-03T05:40:22;99734.75;;;8.35;74.38
74631;BME280;63138;55.082;38.804;2023-04-03T05:42:53;99729.38;;;8.68;73.08
74631;BME280;63138;55.082;38.804;2023-04-03T05:45:22;99738.69;;;8.82;72.06
74631;BME280;63138;55.082;38.804;2023-04-03T05:47:50;99740.88;;;8.78;71.28
74631;BME280;63138;55.082;38.804;2023-04-03T05:50:40;99740.72;;;8.71;71.44
74631;BME280;63138;55.082;38.804;2023-04-03T05:53:17;99735.81;;;8.75;71.33
74631;BME280;63138;55.082;38.804;2023-04-03T05:55:49;99728.53;;;8.84;71.10
74631;BME280;63138;55.082;38.804;2023-04-03T05:58:16;99733.94;;;9.08;70.79
74631;BME280;63138;55.082;38.804;2023-04-03T06:00:47;99734.88;;;9.24;70.52
74631;BME280;63138;55.082;38.804;2023-04-03T06:03:39;99744.34;;;9.44;69.81
74631;BME280;63138;55.082;38.804;2023-04-03T06:06:07;99744.53;;;9.82;68.65
74631;BME280;63138;55.082;38.804;2023-04-03T06:09:00;99742.88;;;10.04;68.22
74631;BME280;63138;55.082;38.804;2023-04-03T06:11:29;99745.00;;;9.94;67.41
74631;BME280;63138;55.082;38.804;2023-04-03T06:13:55;99748.34;;;10.27;67.16
74631;BME280;63138;55.082;38.804;2023-04-03T06:16:25;99739.41;;;10.50;66.13
74631;BME280;63138;55.082;38.804;2023-04-03T06:18:52;99743.56;;;10.38;66.10
74631;BME280;63138;55.082;38.804;2023-04-03T06:21:17;99753.47;;;10.54;66.04
74631;BME280;63138;55.082;38.804;2023-04-03T06:23:43;99750.00;;;10.60;65.33
74631;BME280;63138;55.082;38.804;2023-04-03T06:26:10;99749.16;;;10.59;65.62
74631;BME280;63138;55.082;38.804;2023-04-03T06:28:36;99758.84;;;10.77;65.23
74631;BME280;63138;55.082;38.804;2023-04-03T06:31:02;99746.44;;;10.82;64.99
74631;BME280;63138;55.082;38.804;2023-04-03T06:33:29;99747.03;;;10.69;64.65
74631;BME280;63138;55.082;38.804;2023-04-03T06:35:59;99752.84;;;10.89;64.71
74631;BME280;63138;55.082;38.804;2023-04-03T06:38:25;99747.41;;;11.04;64.19
74631;BME280;63138;55.082;38.804;2023-04-03T06:41:10;99749.78;;;11.07;64.18
74631;BME280;63138;55.082;38.804;2023-04-03T06:43:36;99757.47;;;11.19;63.63
74631;BME280;63138;55.082;38.804;2023-04-03T06:46:02;99755.06;;;11.24;64.11
74631;BME280;63138;55.082;38.804;2023-04-03T06:48:28;99754.19;;;11.23;64.30
74631;BME280;63138;55.082;38.804;2023-04-03T06:50:55;99758.31;;;11.34;63.95
74631;BME280;63138;55.082;38.804;2023-04-03T06:53:49;99756.47;;;11.35;62.26
74631;BME280;63138;55.082;38.804;2023-04-03T06:56:16;99758.72;;;11.46;62.47
74631;BME280;63138;55.082;38.804;2023-04-03T06:58:44;99755.59;;;11.34;61.73
74631;BME280;63138;55.082;38.804;2023-04-03T07:01:36;99760.38;;;11.32;61.89
74631;BME280;63138;55.082;38.804;2023-04-03T07:04:03;99759.66;;;11.38;62.88
74631;BME280;63138;55.082;38.804;2023-04-03T07:06:34;99761.34;;;11.54;62.57
74631;BME280;63138;55.082;38.804;2023-04-03T07:09:00;99762.19;;;11.70;61.83
74631;BME280;63138;55.082;38.804;2023-04-03T07:11:27;99758.91;;;11.74;62.00
74631;BME280;63138;55.082;38.804;2023-04-03T07:13:54;99763.22;;;11.83;61.33
74631;BME280;63138;55.082;38.804;2023-04-03T07:16:20;99759.06;;;11.88;61.69
74631;BME280;63138;55.082;38.804;2023-04-03T07:18:46;99772.22;;;11.99;61.01
74631;BME280;63138;55.082;38.804;2023-04-03T07:21:13;99775.22;;;12.04;60.98
74631;BME280;63138;55.082;38.804;2023-04-03T07:24:04;99774.72;;;12.15;60.34
74631;BME280;63138;55.082;38.804;2023-04-03T07:26:31;99774.72;;;12.15;60.31
74631;BME280;63138;55.082;38.804;2023-04-03T07:28:59;99769.53;;;12.20;60.27
74631;BME280;63138;55.082;38.804;2023-04-03T07:31:25;99772.72;;;12.24;60.38
74631;BME280;63138;55.082;38.804;2023-04-03T07:33:50;99771.09;;;12.30;59.99
74631;BME280;63138;55.082;38.804;2023-04-03T07:36:19;99769.97;;;12.39;59.83
74631;BME280;63138;55.082;38.804;2023-04-03T07:38:46;99771.00;;;12.38;59.65
74631;BME280;63138;55.082;38.804;2023-04-03T07:41:17;99775.75;;;12.51;59.58
74631;BME280;63138;55.082;38.804;2023-04-03T07:43:48;99782.56;;;12.61;59.12
74631;BME280;63138;55.082;38.804;2023-04-03T07:46:15;99777.75;;;12.63;58.67
74631;BME280;63138;55.082;38.804;2023-04-03T07:48:43;99775.44;;;12.60;59.06
74631;BME280;63138;55.082;38.804;2023-04-03T07:51:36;99779.91;;;12.68;58.20
74631;BME280;63138;55.082;38.804;2023-04-03T07:54:29;99787.16;;;12.39;58.80
74631;BME280;63138;55.082;38.804;2023-04-03T07:56:55;99785.81;;;11.99;60.67
74631;BME280;63138;55.082;38.804;2023-04-03T07:59:23;99771.00;;;11.72;61.45
74631;BME280;63138;55.082;38.804;2023-04-03T08:01:50;99789.94;;;11.80;61.17
74631;BME280;63138;55.082;38.804;2023-04-03T08:04:44;99786.19;;;11.66;61.51
74631;BME280;63138;55.082;38.804;2023-04-03T08:07:10;99777.38;;;11.64;61.13
74631;BME280;63138;55.082;38.804;2023-04-03T08:09:35;99794.09;;;11.76;60.68
74631;BME280;63138;55.082;38.804;2023-04-03T08:12:01;99785.16;;;11.67;61.43
74631;BME280;63138;55.082;38.804;2023-04-03T08:14:33;99781.41;;;11.83;60.72
74631;BME280;63138;55.082;38.804;2023-04-03T08:17:29;99777.19;;;11.80;60.55
74631;BME280;63138;55.082;38.804;2023-04-03T08:19:58;99784.69;;;11.78;60.98
74631;BME280;63138;55.082;38.804;2023-04-03T08:22:24;99773.44;;;11.52;61.09
74631;BME280;63138;55.082;38.804;2023-04-03T08:24:53;99777.91;;;11.15;63.93
74631;BME280;63138;55.082;38.804;2023-04-03T08:27:18;99770.25;;;11.33;63.81
74631;BME280;63138;55.082;38.804;2023-04-03T08:29:44;99778.66;;;11.23;64.52
74631;BME280;63138;55.082;38.804;2023-04-03T08:32:36;99763.44;;;10.99;64.38
74631;BME280;63138;55.082;38.804;2023-04-03T08:35:39;99779.56;;;10.78;65.63
74631;BME280;63138;55.082;38.804;2023-04-03T08:38:09;99781.59;;;10.99;65.33
74631;BME280;63138;55.082;38.804;2023-04-03T08:40:38;99770.44;;;10.94;65.24
74631;BME280;63138;55.082;38.804;2023-04-03T08:46:12;99788.66;;;11.08;65.33
74631;BME280;63138;55.082;38.804;2023-04-03T08:48:43;99786.63;;;11.25;65.45
74631;BME280;63138;55.082;38.804;2023-04-03T08:51:17;99795.94;;;11.45;64.65
74631;BME280;63138;55.082;38.804;2023-04-03T08:53:59;99787.13;;;11.58;63.69
74631;BME280;63138;55.082;38.804;2023-04-03T08:56:52;99786.75;;;11.76;63.51
74631;BME280;63138;55.082;38.804;2023-04-03T08:59:26;99786.19;;;11.51;62.76
74631;BME280;63138;55.082;38.804;2023-04-03T09:01:56;99792.28;;;11.68;63.65
74631;BME280;63138;55.082;38.804;2023-04-03T09:04:25;99795.66;;;11.85;62.29
74631;BME280;63138;55.082;38.804;2023-04-03T09:06:57;99786.91;;;11.90;61.58
74631;BME280;63138;55.082;38.804;2023-04-03T09:09:37;99800.53;;;12.04;61.43
74631;BME280;63138;55.082;38.804;2023-04-03T09:12:36;99793.88;;;12.07;61.87
74631;BME280;63138;55.082;38.804;2023-04-03T09:15:20;99798.75;;;12.12;61.14
74631;BME280;63138;55.082;38.804;2023-04-03T09:18:03;99797.81;;;12.04;61.34
74631;BME280;63138;55.082;38.804;2023-04-03T09:23:51;99801.59;;;12.03;60.87
74631;BME280;63138;55.082;38.804;2023-04-03T09:27:04;99803.16;;;12.13;60.96
74631;BME280;63138;55.082;38.804;2023-04-03T09:29:36;99807.09;;;12.25;60.17
74631;BME280;63138;55.082;38.804;2023-04-03T09:32:24;99796.69;;;12.14;58.85
74631;BME280;63138;55.082;38.804;2023-04-03T09:34:53;99792.66;;;12.10;58.88
74631;BME280;63138;55.082;38.804;2023-04-03T09:37:43;99798.78;;;12.33;58.95
74631;BME280;63138;55.082;38.804;2023-04-03T09:42:59;99792.59;;;12.39;57.10
74631;BME280;63138;55.082;38.804;2023-04-03T09:45:35;99795.59;;;12.30;56.97
74631;BME280;63138;55.082;38.804;2023-04-03T09:50:36;99789.91;;;12.24;56.73
74631;BME280;63138;55.082;38.804;2023-04-03T09:53:11;99792.66;;;12.24;57.66
74631;BME280;63138;55.082;38.804;2023-04-03T09:55:51;99783.16;;;12.20;56.93
74631;BME280;63138;55.082;38.804;2023-04-03T10:01:37;99770.47;;;12.28;57.25
74631;BME280;63138;55.082;38.804;2023-04-03T10:04:10;99781.88;;;12.38;57.02
74631;BME280;63138;55.082;38.804;2023-04-03T10:06:40;99783.38;;;12.40;57.64
74631;BME280;63138;55.082;38.804;2023-04-03T10:09:28;99781.47;;;12.56;57.15
74631;BME280;63138;55.082;38.804;2023-04-03T10:12:08;99773.81;;;12.66;56.67
74631;BME280;63138;55.082;38.804;2023-04-03T10:19:57;99781.50;;;13.06;56.08
74631;BME280;63138;55.082;38.804;2023-04-03T10:26:49;99795.53;;;12.81;56.17
74631;BME280;63138;55.082;38.804;2023-04-03T10:30:19;99791.91;;;12.52;56.25
74631;BME280;63138;55.082;38.804;2023-04-03T10:32:51;99780.88;;;12.60;55.55
74631;BME280;63138;55.082;38.804;2023-04-03T10:39:06;99798.16;;;12.89;55.68
74631;BME280;63138;55.082;38.804;2023-04-03T10:45:00;99779.91;;;12.90;55.47
74631;BME280;63138;55.082;38.804;2023-04-03T10:47:46;99774.53;;;12.75;54.85
74631;BME280;63138;55.082;38.804;2023-04-03T10:58:45;99776.09;;;12.62;54.98
74631;BME280;63138;55.082;38.804;2023-04-03T11:01:22;99774.66;;;12.67;53.78
74631;BME280;63138;55.082;38.804;2023-04-03T11:03:55;99774.66;;;12.67;53.40
74631;BME280;63138;55.082;38.804;2023-04-03T11:06:25;99781.56;;;12.69;53.27
74631;BME280;63138;55.082;38.804;2023-04-03T11:11:44;99778.28;;;12.52;53.98
74631;BME280;63138;55.082;38.804;2023-04-03T11:14:30;99781.91;;;12.59;54.19
74631;BME280;63138;55.082;38.804;2023-04-03T11:22:48;99780.22;;;12.80;53.43
74631;BME280;63138;55.082;38.804;2023-04-03T11:25:22;99784.63;;;12.81;53.79
74631;BME280;63138;55.082;38.804;2023-04-03T11:28:14;99779.66;;;12.85;52.60
74631;BME280;63138;55.082;38.804;2023-04-03T11:37:44;99782.19;;;12.86;51.50
74631;BME280;63138;55.082;38.804;2023-04-03T11:43:33;99770.81;;;12.82;50.48
74631;BME280;63138;55.082;38.804;2023-04-03T11:46:04;99765.75;;;12.79;50.67
74631;BME280;63138;55.082;38.804;2023-04-03T11:53:54;99763.69;;;12.81;50.39
74631;BME280;63138;55.082;38.804;2023-04-03T12:01:52;99782.56;;;12.83;49.82
74631;BME280;63138;55.082;38.804;2023-04-03T12:04:21;99769.31;;;12.80;49.13
74631;BME280;63138;55.082;38.804;2023-04-03T12:09:33;99782.63;;;12.90;49.02
74631;BME280;63138;55.082;38.804;2023-04-03T12:12:28;99777.75;;;12.85;49.33
74631;BME280;63138;55.082;38.804;2023-04-03T12:14:54;99766.28;;;12.90;48.63
74631;BME280;63138;55.082;38.804;2023-04-03T12:17:27;99772.81;;;12.95;48.88
74631;BME280;63138;55.082;38.804;2023-04-03T12:19:55;99777.56;;;12.87;48.13
74631;BME280;63138;55.082;38.804;2023-04-03T12:22:22;99770.50;;;12.71;48.06
74631;BME280;63138;55.082;38.804;2023-04-03T12:24:52;99766.94;;;12.70;48.64
74631;BME280;63138;55.082;38.804;2023-04-03T12:27:23;99764.66;;;12.74;49.24
74631;BME280;63138;55.082;38.804;2023-04-03T12:32:46;99754.16;;;12.71;47.68
74631;BME280;63138;55.082;38.804;2023-04-03T12:38:20;99761.56;;;12.77;47.43
74631;BME280;63138;55.082;38.804;2023-04-03T12:46:44;99759.84;;;12.76;47.04
74631;BME280;63138;55.082;38.804;2023-04-03T12:49:41;99768.66;;;12.78;47.60
74631;BME280;63138;55.082;38.804;2023-04-03T12:52:23;99755.66;;;12.73;47.14
74631;BME280;63138;55.082;38.804;2023-04-03T12:54:52;99757.00;;;12.84;46.96
74631;BME280;63138;55.082;38.804;2023-04-03T12:57:26;99761.22;;;12.87;46.81
74631;BME280;63138;55.082;38.804;2023-04-03T12:59:53;99762.91;;;12.88;46.78
74631;BME280;63138;55.082;38.804;2023-04-03T13:05:18;99754.13;;;12.92;46.36
74631;BME280;63138;55.082;38.804;2023-04-03T13:08:22;99760.03;;;12.96;46.04
74631;BME280;63138;55.082;38.804;2023-04-03T13:10:54;99757.94;;;12.98;46.08
74631;BME280;63138;55.082;38.804;2023-04-03T13:13:24;99757.38;;;13.03;45.75
74631;BME280;63138;55.082;38.804;2023-04-03T13:15:53;99752.56;;;13.05;45.41
74631;BME280;63138;55.082;38.804;2023-04-03T13:18:31;99732.38;;;12.99;45.24
74631;BME280;63138;55.082;38.804;2023-04-03T13:21:24;99754.25;;;13.06;44.88
74631;BME280;63138;55.082;38.804;2023-04-03T13:23:57;99750.91;;;13.10;44.96
74631;BME280;63138;55.082;38.804;2023-04-03T13:26:51;99747.00;;;13.19;44.39
74631;BME280;63138;55.082;38.804;2023-04-03T13:29:42;99739.47;;;13.22;44.22
74631;BME280;63138;55.082;38.804;2023-04-03T13:32:23;99750.59;;;13.20;44.76
74631;BME280;63138;55.082;38.804;2023-04-03T13:34:50;99743.84;;;13.16;44.75
74631;BME280;63138;55.082;38.804;2023-04-03T13:37:25;99743.19;;;13.14;44.95
74631;BME280;63138;55.082;38.804;2023-04-03T13:43:17;99750.44;;;13.00;44.87
74631;BME280;63138;55.082;38.804;2023-04-03T13:46:22;99748.03;;;12.90;45.28
74631;BME280;63138;55.082;38.804;2023-04-03T13:48:53;99742.84;;;12.95;45.80
74631;BME280;63138;55.082;38.804;2023-04-03T13:51:27;99732.75;;;12.89;45.04
74631;BME280;63138;55.082;38.804;2023-04-03T13:53:55;99722.63;;;12.83;44.81
74631;BME280;63138;55.082;38.804;2023-04-03T13:56:31;99730.84;;;12.90;45.16
74631;BME280;63138;55.082;38.804;2023-04-03T13:59:05;99737.97;;;12.91;45.23
74631;BME280;63138;55.082;38.804;2023-04-03T14:07:03;99738.88;;;12.98;45.72
74631;BME280;63138;55.082;38.804;2023-04-03T14:09:29;99728.84;;;12.98;45.44
74631;BME280;63138;55.082;38.804;2023-04-03T14:12:01;99729.84;;;12.97;45.36
74631;BME280;63138;55.082;38.804;2023-04-03T14:14:35;99716.41;;;12.89;46.05
74631;BME280;63138;55.082;38.804;2023-04-03T14:17:09;99725.22;;;12.91;45.68
74631;BME280;63138;55.082;38.804;2023-04-03T14:19:56;99718.44;;;12.87;46.14
74631;BME280;63138;55.082;38.804;2023-04-03T14:22:28;99726.88;;;12.92;46.50
74631;BME280;63138;55.082;38.804;2023-04-03T14:24:57;99725.16;;;12.85;46.03
74631;BME280;63138;55.082;38.804;2023-04-03T14:27:35;99727.69;;;12.86;46.73
74631;BME280;63138;55.082;38.804;2023-04-03T14:30:03;99723.91;;;12.87;47.03
74631;BME280;63138;55.082;38.804;2023-04-03T14:32:30;99732.50;;;12.84;47.52
74631;BME280;63138;55.082;38.804;2023-04-03T14:34:56;99720.50;;;12.78;47.11
74631;BME280;63138;55.082;38.804;2023-04-03T14:37:28;99730.53;;;12.78;47.54
74631;BME280;63138;55.082;38.804;2023-04-03T14:39:59;99728.88;;;12.77;47.71
74631;BME280;63138;55.082;38.804;2023-04-03T14:42:33;99725.50;;;12.75;47.72
74631;BME280;63138;55.082;38.804;2023-04-03T14:45:02;99728.22;;;12.75;47.46
74631;BME280;63138;55.082;38.804;2023-04-03T14:47:29;99731.13;;;12.73;47.56
74631;BME280;63138;55.082;38.804;2023-04-03T14:49:58;99731.72;;;12.69;47.55
74631;BME280;63138;55.082;38.804;2023-04-03T14:52:31;99736.13;;;12.70;47.79
74631;BME280;63138;55.082;38.804;2023-04-03T14:55:06;99724.97;;;12.65;47.91
74631;BME280;63138;55.082;38.804;2023-04-03T14:57:32;99730.81;;;12.61;48.14
74631;BME280;63138;55.082;38.804;2023-04-03T14:59:58;99731.84;;;12.60;48.38
74631;BME280;63138;55.082;38.804;2023-04-03T15:02:36;99735.59;;;12.59;48.66
74631;BME280;63138;55.082;38.804;2023-04-03T15:05:27;99745.88;;;12.57;48.84
74631;BME280;63138;55.082;38.804;2023-04-03T15:08:24;99742.88;;;12.52;49.27
74631;BME280;63138;55.082;38.804;2023-04-03T15:10:53;99747.41;;;12.45;49.08
74631;BME280;63138;55.082;38.804;2023-04-03T15:13:23;99741.31;;;12.43;49.52